Time;durP1;ratioP1;P1;durP2;ratioP2;P2;SDS_P1;SDS_P2;PMS_P1;PMS_P2;Temp;Humidity;BMP_temperature;BMP_pressure;BME280_temperature;BME280_humidity;BME280_pressure;Samples;Min_cycle;Max_cycle;Signal;HPM_P1;HPM_P2
2023/12/03 00:00:40;;;;;;;9.23;3.75;;;;;;;;;;10301530;28;20159;-66
2023/12/03 00:05:40;;;;;;;7.43;3.72;;;;;;;;;;10300423;28;20612;-64
2023/12/03 00:10:39;;;;;;;9.68;4.95;;;;;;;;;;10301947;28;20127;-64
2023/12/03 00:15:37;;;;;;;6.80;3.95;;;;;;;;;;10305275;28;20558;-65
2023/12/03 00:20:35;;;;;;;12.43;3.80;;;;;;;;;;10308410;28;20128;-65
2023/12/03 00:25:35;;;;;;;7.88;3.30;;;;;;;;;;10307827;28;20048;-67
2023/12/03 00:30:33;;;;;;;6.82;3.33;;;;;;;;;;10306699;28;20108;-66
2023/12/03 00:35:31;;;;;;;10.63;3.40;;;;;;;;;;10307531;28;20123;-66
2023/12/03 00:40:29;;;;;;;7.53;3.60;;;;;;;;;;10306487;28;20154;-65
2023/12/03 00:45:29;;;;;;;8.18;4.10;;;;;;;;;;10307580;28;20156;-65
2023/12/03 00:50:28;;;;;;;9.95;4.97;;;;;;;;;;10307535;28;20123;-66
2023/12/03 00:55:26;;;;;;;11.55;5.55;;;;;;;;;;10308248;28;20797;-66
2023/12/03 01:00:24;;;;;;;14.27;9.40;;;;;;;;;;10307441;28;20140;-66
2023/12/03 01:05:24;;;;;;;30.50;17.05;;;;;;;;;;10307299;28;20135;-66
2023/12/03 01:10:22;;;;;;;26.38;15.65;;;;;;;;;;10305883;28;20133;-65
2023/12/03 01:15:21;;;;;;;17.38;13.80;;;;;;;;;;10307243;28;20751;-65
2023/12/03 01:20:19;;;;;;;20.50;12.45;;;;;;;;;;10307657;28;20123;-66
2023/12/03 01:25:18;;;;;;;18.05;11.98;;;;;;;;;;10307530;28;20135;-65
2023/12/03 01:30:17;;;;;;;15.25;11.75;;;;;;;;;;10309904;28;20163;-66
2023/12/03 01:35:16;;;;;;;30.02;16.63;;;;;;;;;;10305474;28;20143;-66
2023/12/03 01:40:15;;;;;;;19.88;12.52;;;;;;;;;;10304738;28;20049;-65
2023/12/03 01:45:14;;;;;;;21.30;13.00;;;;;;;;;;10306834;28;20131;-66
2023/12/03 01:50:13;;;;;;;16.70;12.32;;;;;;;;;;10305940;28;20139;-65
2023/12/03 01:55:12;;;;;;;18.02;12.57;;;;;;;;;;10305459;28;20127;-65
2023/12/03 02:00:11;;;;;;;16.85;12.82;;;;;;;;;;10286493;28;20603;-65
2023/12/03 02:05:13;;;;;;;19.92;12.88;;;;;;;;;;10304771;28;20123;-65
2023/12/03 02:10:11;;;;;;;22.95;13.75;;;;;;;;;;10304601;28;20151;-65
2023/12/03 02:15:10;;;;;;;19.38;12.60;;;;;;;;;;10304791;28;21220;-65
2023/12/03 02:20:09;;;;;;;17.85;12.10;;;;;;;;;;10304541;28;20128;-66
2023/12/03 02:25:09;;;;;;;17.95;12.30;;;;;;;;;;10285838;28;20135;-65
2023/12/03 02:30:08;;;;;;;26.83;12.57;;;;;;;;;;10305114;28;20132;-65
2023/12/03 02:35:06;;;;;;;17.20;11.95;;;;;;;;;;10304678;28;20162;-65
2023/12/03 02:40:05;;;;;;;20.63;12.18;;;;;;;;;;10302323;28;20496;-65
2023/12/03 02:45:06;;;;;;;19.58;12.05;;;;;;;;;;10304040;28;20147;-65
2023/12/03 02:50:04;;;;;;;18.00;12.40;;;;;;;;;;10303363;28;20148;-65
2023/12/03 02:55:04;;;;;;;22.15;12.82;;;;;;;;;;10303941;28;20123;-64
2023/12/03 03:00:02;;;;;;;18.55;13.20;;;;;;;;;;10303972;28;20140;-64
2023/12/03 03:05:01;;;;;;;22.00;13.57;;;;;;;;;;10303423;28;20151;-64
2023/12/03 03:10:00;;;;;;;15.90;11.88;;;;;;;;;;10284605;28;20535;-64
2023/12/03 03:14:58;;;;;;;15.38;11.30;;;;;;;;;;10302363;28;20484;-64
2023/12/03 03:19:56;;;;;;;16.75;14.13;;;;;;;;;;10301165;28;20130;-64
2023/12/03 03:24:56;;;;;;;22.15;13.43;;;;;;;;;;10301537;28;20139;-65
2023/12/03 03:29:54;;;;;;;21.13;13.88;;;;;;;;;;10302452;28;20048;-65
2023/12/03 03:34:52;;;;;;;21.67;13.38;;;;;;;;;;10300878;28;21355;-64
2023/12/03 03:39:51;;;;;;;18.17;12.63;;;;;;;;;;10301151;28;21030;-64
2023/12/03 03:44:50;;;;;;;20.73;13.07;;;;;;;;;;10301498;28;20167;-66
2023/12/03 03:49:48;;;;;;;13.98;11.75;;;;;;;;;;10301655;28;20509;-65
2023/12/03 03:54:47;;;;;;;25.48;13.70;;;;;;;;;;10300661;28;20123;-66
2023/12/03 03:59:46;;;;;;;20.75;13.27;;;;;;;;;;10300559;28;20115;-65
2023/12/03 04:04:47;;;;;;;20.27;12.27;;;;;;;;;;10300126;28;20050;-65
2023/12/03 04:09:46;;;;;;;19.60;11.48;;;;;;;;;;10294633;28;20583;-66
2023/12/03 04:14:44;;;;;;;16.27;10.88;;;;;;;;;;10299639;28;20463;-64
2023/12/03 04:19:42;;;;;;;14.68;10.30;;;;;;;;;;10300830;28;20132;-65
2023/12/03 04:24:42;;;;;;;16.40;10.00;;;;;;;;;;10299073;28;20048;-65
2023/12/03 04:29:40;;;;;;;16.30;9.23;;;;;;;;;;10300155;28;20063;-65
2023/12/03 04:34:39;;;;;;;18.42;9.77;;;;;;;;;;10300200;28;20051;-65
2023/12/03 04:39:38;;;;;;;11.93;9.00;;;;;;;;;;10299356;28;20136;-65
2023/12/03 04:44:37;;;;;;;15.93;9.70;;;;;;;;;;10299058;28;20135;-66
2023/12/03 04:49:36;;;;;;;17.90;11.02;;;;;;;;;;10298209;28;20122;-66
2023/12/03 04:54:34;;;;;;;16.88;9.13;;;;;;;;;;10298797;28;20550;-65
2023/12/03 04:59:32;;;;;;;15.40;10.77;;;;;;;;;;10298639;28;20131;-65
2023/12/03 05:04:32;;;;;;;15.57;9.80;;;;;;;;;;10303967;28;20156;-65
2023/12/03 05:09:30;;;;;;;19.88;11.93;;;;;;;;;;10306680;28;20450;-66
2023/12/03 05:14:28;;;;;;;21.23;13.85;;;;;;;;;;10317821;28;20143;-65
2023/12/03 05:19:27;;;;;;;24.20;17.83;;;;;;;;;;10307293;28;20560;-66
2023/12/03 05:24:27;;;;;;;28.40;22.20;;;;;;;;;;10305271;28;20127;-65
2023/12/03 05:29:25;;;;;;;28.38;21.85;;;;;;;;;;10305799;28;20127;-65
2023/12/03 05:34:24;;;;;;;38.63;32.75;;;;;;;;;;10306372;28;20127;-65
2023/12/03 05:39:22;;;;;;;34.83;26.88;;;;;;;;;;10306289;28;20152;-65
2023/12/03 05:44:22;;;;;;;29.00;20.38;;;;;;;;;;10305415;28;20661;-64
2023/12/03 05:49:20;;;;;;;29.98;21.70;;;;;;;;;;10305785;28;20214;-65
2023/12/03 05:54:18;;;;;;;24.88;20.17;;;;;;;;;;10304253;28;20123;-64
2023/12/03 05:59:17;;;;;;;25.38;19.20;;;;;;;;;;10305039;28;20119;-64
2023/12/03 06:04:16;;;;;;;26.92;19.35;;;;;;;;;;10305012;28;20125;-64
2023/12/03 06:09:15;;;;;;;22.95;18.88;;;;;;;;;;10303280;28;20135;-65
2023/12/03 06:14:13;;;;;;;21.92;17.67;;;;;;;;;;10303643;28;21736;-64
2023/12/03 06:19:11;;;;;;;22.63;18.27;;;;;;;;;;10304780;28;20823;-65
2023/12/03 06:24:11;;;;;;;27.67;18.38;;;;;;;;;;10308321;28;20122;-64
2023/12/03 06:29:10;;;;;;;20.73;16.55;;;;;;;;;;10304259;28;20588;-65
2023/12/03 06:34:08;;;;;;;28.35;24.35;;;;;;;;;;10305408;28;20943;-65
2023/12/03 06:39:07;;;;;;;23.95;17.05;;;;;;;;;;10301520;28;20134;-66
2023/12/03 06:44:07;;;;;;;25.38;14.98;;;;;;;;;;10302998;28;20154;-66
2023/12/03 06:49:05;;;;;;;20.23;14.05;;;;;;;;;;10300975;28;20062;-66
2023/12/03 06:54:04;;;;;;;22.95;14.75;;;;;;;;;;10301259;28;20575;-66
2023/12/03 06:59:02;;;;;;;21.45;13.38;;;;;;;;;;10299623;28;20139;-66
2023/12/03 07:04:02;;;;;;;21.83;16.02;;;;;;;;;;10303158;28;20139;-67
2023/12/03 07:09:00;;;;;;;20.17;14.57;;;;;;;;;;10308481;28;20752;-66
2023/12/03 07:14:18;;;;;;;17.75;13.93;;;;;;;;;;10309200;28;20533;-67
2023/12/03 07:19:18;;;;;;;19.83;15.65;;;;;;;;;;10324940;28;20072;-67
2023/12/03 07:24:17;;;;;;;30.02;20.50;;;;;;;;;;10328347;28;20098;-66
2023/12/03 07:29:15;;;;;;;19.20;15.95;;;;;;;;;;10325074;28;20083;-67
2023/12/03 07:34:13;;;;;;;17.42;14.70;;;;;;;;;;10324818;28;20493;-66
2023/12/03 07:39:13;;;;;;;20.70;15.50;;;;;;;;;;10321599;28;20079;-66
2023/12/03 07:44:13;;;;;;;17.15;14.15;;;;;;;;;;10324046;28;20068;-66
2023/12/03 07:49:12;;;;;;;15.95;12.77;;;;;;;;;;10323610;28;20083;-66
2023/12/03 07:54:10;;;;;;;14.45;12.73;;;;;;;;;;10323734;28;20118;-66
2023/12/03 07:59:11;;;;;;;16.48;13.30;;;;;;;;;;10326471;28;20064;-67
2023/12/03 08:04:09;;;;;;;16.08;13.45;;;;;;;;;;10330242;28;20074;-66
2023/12/03 08:09:08;;;;;;;23.23;14.55;;;;;;;;;;10326873;28;20072;-67
2023/12/03 08:14:06;;;;;;;13.55;11.75;;;;;;;;;;10326575;28;20075;-67
2023/12/03 08:19:05;;;;;;;13.13;11.30;;;;;;;;;;10327699;28;20067;-67
2023/12/03 08:24:04;;;;;;;14.27;12.15;;;;;;;;;;10326041;28;20446;-68
2023/12/03 08:29:04;;;;;;;15.25;11.35;;;;;;;;;;10308408;28;20091;-68
2023/12/03 08:34:02;;;;;;;13.32;10.75;;;;;;;;;;10326742;28;20070;-68
2023/12/03 08:39:06;;;;;;;12.30;10.85;;;;;;;;;;10333988;28;20445;-68
2023/12/03 08:44:05;;;;;;;15.45;10.52;;;;;;;;;;10334646;28;20063;-67
2023/12/03 08:49:03;;;;;;;9.80;8.80;;;;;;;;;;10319477;28;20091;-67
2023/12/03 08:54:03;;;;;;;11.25;8.52;;;;;;;;;;10334395;28;20071;-67
2023/12/03 08:59:01;;;;;;;12.07;9.57;;;;;;;;;;10335425;28;20067;-67
2023/12/03 09:04:00;;;;;;;9.50;6.88;;;;;;;;;;10334567;28;20098;-67
2023/12/03 09:08:58;;;;;;;8.63;6.70;;;;;;;;;;10328721;28;20090;-67
2023/12/03 09:13:58;;;;;;;12.77;9.18;;;;;;;;;;10321581;28;20072;-65
2023/12/03 09:18:56;;;;;;;10.32;6.18;;;;;;;;;;10328936;28;20036;-65
2023/12/03 09:23:56;;;;;;;9.40;6.28;;;;;;;;;;10331941;28;20044;-66
2023/12/03 09:28:54;;;;;;;8.68;7.68;;;;;;;;;;10335291;28;20082;-66
2023/12/03 09:33:54;;;;;;;11.13;6.03;;;;;;;;;;10332823;28;20060;-66
2023/12/03 09:38:53;;;;;;;9.60;7.80;;;;;;;;;;10324948;28;20079;-67
2023/12/03 09:43:53;;;;;;;11.00;8.70;;;;;;;;;;10331413;28;20068;-67
2023/12/03 09:48:51;;;;;;;11.63;10.20;;;;;;;;;;10330314;28;20520;-67
2023/12/03 09:53:51;;;;;;;7.15;6.45;;;;;;;;;;10331578;28;20071;-67
2023/12/03 09:58:50;;;;;;;6.82;5.72;;;;;;;;;;10330787;28;20067;-67
2023/12/03 10:03:51;;;;;;;10.63;7.95;;;;;;;;;;10312067;28;20083;-66
2023/12/03 10:08:52;;;;;;;11.30;8.32;;;;;;;;;;10314148;28;20143;-67
2023/12/03 10:13:51;;;;;;;17.52;12.85;;;;;;;;;;10329270;28;20068;-67
2023/12/03 10:18:50;;;;;;;21.60;15.07;;;;;;;;;;10332422;28;20063;-66
2023/12/03 10:23:58;;;;;;;15.35;12.98;;;;;;;;;;10321423;28;20575;-65
2023/12/03 10:28:57;;;;;;;16.05;10.38;;;;;;;;;;10314026;28;20144;-67
2023/12/03 10:33:55;;;;;;;12.63;11.25;;;;;;;;;;10314830;28;20063;-67
2023/12/03 10:38:53;;;;;;;14.98;11.85;;;;;;;;;;10317449;28;20087;-67
2023/12/03 10:43:53;;;;;;;17.05;13.48;;;;;;;;;;10312935;28;20139;-67
2023/12/03 10:48:52;;;;;;;14.50;13.00;;;;;;;;;;10328705;28;20067;-66
2023/12/03 10:53:50;;;;;;;32.08;23.20;;;;;;;;;;10300381;28;20481;-66
2023/12/03 10:58:49;;;;;;;37.05;27.38;;;;;;;;;;10308230;28;20123;-67
2023/12/03 11:03:54;;;;;;;21.15;19.02;;;;;;;;;;10301756;28;20135;-67
2023/12/03 11:08:55;;;;;;;18.42;15.13;;;;;;;;;;10300592;28;20139;-67
2023/12/03 11:13:54;;;;;;;20.58;18.38;;;;;;;;;;10281404;28;20143;-66
2023/12/03 11:18:55;;;;;;;28.00;22.13;;;;;;;;;;10301158;28;20131;-66
2023/12/03 11:24:05;;;;;;;26.77;19.27;;;;;;;;;;10298289;28;20138;-67
2023/12/03 11:29:04;;;;;;;40.97;29.55;;;;;;;;;;10310390;28;20519;-66
2023/12/03 11:34:05;;;;;;;45.40;26.45;;;;;;;;;;10306165;28;21552;-67
2023/12/03 11:39:04;;;;;;;39.25;25.63;;;;;;;;;;10301060;28;20131;-67
2023/12/03 11:44:17;;;;;;;36.92;27.08;;;;;;;;;;10279105;28;20135;-66
2023/12/03 11:49:17;;;;;;;18.63;16.08;;;;;;;;;;10307746;28;20140;-67
2023/12/03 11:54:17;;;;;;;20.27;16.75;;;;;;;;;;10305751;28;20127;-67
2023/12/03 11:59:16;;;;;;;45.17;34.20;;;;;;;;;;10329959;28;20081;-68
2023/12/03 12:04:21;;;;;;;23.95;17.75;;;;;;;;;;10282382;28;20139;-68
2023/12/03 12:09:23;;;;;;;22.48;19.48;;;;;;;;;;10302402;28;20151;-69
2023/12/03 12:14:21;;;;;;;34.70;25.80;;;;;;;;;;10300729;28;20128;-67
2023/12/03 12:19:21;;;;;;;28.45;25.33;;;;;;;;;;10302422;28;20131;-67
2023/12/03 12:24:19;;;;;;;35.08;26.77;;;;;;;;;;10302328;28;20115;-66
2023/12/03 12:29:18;;;;;;;92.50;55.65;;;;;;;;;;10299103;28;20494;-67
2023/12/03 12:34:17;;;;;;;20.52;18.20;;;;;;;;;;10299528;28;20837;-67
2023/12/03 12:39:26;;;;;;;21.33;18.25;;;;;;;;;;10297932;28;20127;-68
2023/12/03 12:44:38;;;;;;;22.73;19.08;;;;;;;;;;10279300;28;20151;-68
2023/12/03 12:49:52;;;;;;;21.17;18.88;;;;;;;;;;10299026;28;20131;-67
2023/12/03 12:54:51;;;;;;;;;;;;;;;;;;10297298;28;20147;-67
2023/12/03 12:59:51;;;;;;;18.08;13.90;;;;;;;;;;10296974;28;20009;-67
2023/12/03 13:04:50;;;;;;;21.33;19.17;;;;;;;;;;10297630;28;20127;-67
2023/12/03 13:09:48;;;;;;;19.75;17.50;;;;;;;;;;10306892;28;20127;-67
2023/12/03 13:14:46;;;;;;;23.58;21.05;;;;;;;;;;10315960;28;20323;-67
2023/12/03 13:19:46;;;;;;;27.13;23.05;;;;;;;;;;10324085;28;20454;-67
2023/12/03 13:24:46;;;;;;;53.10;37.72;;;;;;;;;;10326742;28;20068;-67
2023/12/03 13:29:44;;;;;;;29.00;23.45;;;;;;;;;;10333594;28;20064;-67
2023/12/03 13:34:42;;;;;;;20.83;18.60;;;;;;;;;;10333126;28;20072;-67
2023/12/03 13:39:42;;;;;;;20.60;17.88;;;;;;;;;;10332234;28;20087;-67
2023/12/03 13:44:40;;;;;;;23.70;19.27;;;;;;;;;;10332000;28;20068;-67
2023/12/03 13:49:38;;;;;;;27.33;20.20;;;;;;;;;;10330686;28;20072;-66
2023/12/03 13:54:36;;;;;;;22.73;19.20;;;;;;;;;;10331462;28;20713;-67
2023/12/03 13:59:37;;;;;;;29.73;26.52;;;;;;;;;;10331797;28;20071;-67
2023/12/03 14:04:35;;;;;;;29.58;25.08;;;;;;;;;;10313215;28;20080;-66
2023/12/03 14:09:35;;;;;;;21.95;18.35;;;;;;;;;;10312392;28;20083;-66
2023/12/03 14:14:33;;;;;;;21.63;18.50;;;;;;;;;;10332635;28;20505;-67
2023/12/03 14:19:33;;;;;;;26.67;20.73;;;;;;;;;;10328250;28;20562;-68
2023/12/03 14:24:31;;;;;;;19.05;15.25;;;;;;;;;;10307765;28;20067;-67
2023/12/03 14:29:30;;;;;;;26.30;23.60;;;;;;;;;;10321740;28;20128;-68
2023/12/03 14:34:29;;;;;;;42.13;30.50;;;;;;;;;;10326613;28;20060;-68
2023/12/03 14:39:29;;;;;;;31.75;28.45;;;;;;;;;;10331051;28;20075;-68
2023/12/03 14:44:27;;;;;;;17.95;16.08;;;;;;;;;;10339401;28;20076;-67
2023/12/03 14:49:26;;;;;;;32.33;25.92;;;;;;;;;;10324739;28;20159;-68
2023/12/03 14:54:25;;;;;;;28.38;23.33;;;;;;;;;;10337710;28;20483;-69
2023/12/03 14:59:25;;;;;;;36.92;29.70;;;;;;;;;;10334219;28;20068;-67
2023/12/03 15:04:24;;;;;;;27.52;21.55;;;;;;;;;;10328146;28;20072;-68
2023/12/03 15:09:22;;;;;;;17.13;15.35;;;;;;;;;;10328063;28;20126;-68
2023/12/03 15:14:21;;;;;;;19.73;16.63;;;;;;;;;;10331487;28;20059;-67
2023/12/03 15:19:21;;;;;;;21.27;17.20;;;;;;;;;;10332988;28;20065;-66
2023/12/03 15:24:20;;;;;;;26.55;19.42;;;;;;;;;;10292370;28;20128;-67
2023/12/03 15:29:18;;;;;;;22.23;17.70;;;;;;;;;;10323782;28;20470;-67
2023/12/03 15:34:16;;;;;;;23.70;18.33;;;;;;;;;;10329171;28;20064;-67
2023/12/03 15:39:16;;;;;;;19.10;17.13;;;;;;;;;;10314931;28;20151;-67
2023/12/03 15:44:15;;;;;;;21.88;19.15;;;;;;;;;;10300597;28;20131;-67
2023/12/03 15:49:13;;;;;;;25.02;22.33;;;;;;;;;;10307160;28;20512;-69
2023/12/03 15:54:18;;;;;;;30.40;21.57;;;;;;;;;;10302803;28;20551;-67
2023/12/03 15:59:16;;;;;;;19.33;17.00;;;;;;;;;;10299464;28;20128;-68
2023/12/03 16:04:15;;;;;;;18.20;16.20;;;;;;;;;;10299027;28;20174;-67
2023/12/03 16:09:14;;;;;;;32.10;23.95;;;;;;;;;;10296319;28;20163;-68
2023/12/03 16:14:14;;;;;;;26.33;21.10;;;;;;;;;;10299634;28;20048;-66
2023/12/03 16:19:12;;;;;;;30.10;23.13;;;;;;;;;;10297453;28;20139;-67
2023/12/03 16:24:11;;;;;;;18.95;16.75;;;;;;;;;;10309836;28;20127;-68
2023/12/03 16:29:10;;;;;;;18.42;16.38;;;;;;;;;;10296926;28;20132;-67
2023/12/03 16:34:09;;;;;;;18.20;15.15;;;;;;;;;;10297491;28;20078;-67
2023/12/03 16:39:10;;;;;;;16.45;14.85;;;;;;;;;;10309578;28;20953;-67
2023/12/03 16:44:08;;;;;;;18.67;16.77;;;;;;;;;;10326560;28;20075;-67
2023/12/03 16:49:07;;;;;;;16.33;14.27;;;;;;;;;;10285227;28;20577;-68
2023/12/03 16:54:06;;;;;;;23.80;18.92;;;;;;;;;;10305288;28;20119;-66
2023/12/03 16:59:04;;;;;;;17.60;15.10;;;;;;;;;;10324212;28;20079;-67
2023/12/03 17:04:03;;;;;;;23.27;19.75;;;;;;;;;;10307639;28;20127;-67
2023/12/03 17:09:02;;;;;;;23.63;18.55;;;;;;;;;;10282320;28;20139;-66
2023/12/03 17:14:01;;;;;;;19.55;17.55;;;;;;;;;;10283729;28;20049;-66
2023/12/03 17:19:00;;;;;;;17.35;15.57;;;;;;;;;;10300730;28;20123;-67
2023/12/03 17:23:58;;;;;;;19.67;15.20;;;;;;;;;;10281763;28;20135;-67
2023/12/03 17:28:56;;;;;;;32.17;25.35;;;;;;;;;;10309803;28;20270;-66
2023/12/03 17:33:56;;;;;;;18.58;16.02;;;;;;;;;;10313789;28;21149;-66
2023/12/03 17:38:54;;;;;;;18.52;15.90;;;;;;;;;;10311213;28;20147;-67
2023/12/03 17:43:53;;;;;;;17.67;15.88;;;;;;;;;;10304382;28;20131;-66
2023/12/03 17:48:51;;;;;;;19.85;16.17;;;;;;;;;;10301142;28;20573;-67
2023/12/03 17:53:51;;;;;;;18.05;16.10;;;;;;;;;;10307679;28;20123;-67
2023/12/03 17:58:49;;;;;;;15.90;13.25;;;;;;;;;;10318405;28;20136;-67
2023/12/03 18:03:47;;;;;;;21.58;17.67;;;;;;;;;;10319578;28;20076;-67
2023/12/03 18:08:47;;;;;;;19.40;16.00;;;;;;;;;;10332405;28;20068;-66
2023/12/03 18:13:47;;;;;;;14.68;11.65;;;;;;;;;;10329237;28;20718;-67
2023/12/03 18:18:45;;;;;;;15.13;12.75;;;;;;;;;;10329776;28;20079;-68
2023/12/03 18:23:43;;;;;;;13.32;11.07;;;;;;;;;;10310280;28;20115;-67
2023/12/03 18:28:43;;;;;;;13.45;11.32;;;;;;;;;;10321319;28;20132;-68
2023/12/03 18:33:45;;;;;;;13.88;11.00;;;;;;;;;;10307454;28;20051;-66
2023/12/03 18:38:43;;;;;;;13.93;11.40;;;;;;;;;;10310224;28;20143;-67
2023/12/03 18:43:43;;;;;;;13.75;11.15;;;;;;;;;;10307543;28;20142;-67
2023/12/03 18:48:43;;;;;;;16.63;12.63;;;;;;;;;;10298431;28;20118;-67
2023/12/03 18:53:42;;;;;;;18.95;16.27;;;;;;;;;;10301862;28;20122;-68
2023/12/03 18:58:40;;;;;;;12.55;11.25;;;;;;;;;;10311717;28;20127;-67
2023/12/03 19:03:38;;;;;;;13.98;12.40;;;;;;;;;;10321441;28;20501;-67
2023/12/03 19:08:38;;;;;;;12.85;11.50;;;;;;;;;;10301664;28;20142;-68
2023/12/03 19:13:37;;;;;;;11.63;10.32;;;;;;;;;;10298567;28;20606;-67
2023/12/03 19:18:39;;;;;;;12.40;10.75;;;;;;;;;;10309906;28;20123;-68
2023/12/03 19:23:39;;;;;;;12.48;11.20;;;;;;;;;;10315302;28;20060;-68
2023/12/03 19:28:38;;;;;;;11.75;10.18;;;;;;;;;;10327901;28;20079;-67
2023/12/03 19:33:36;;;;;;;12.77;11.23;;;;;;;;;;10297109;28;20131;-67
2023/12/03 19:38:34;;;;;;;11.68;9.35;;;;;;;;;;10314898;28;20084;-66
2023/12/03 19:43:34;;;;;;;13.13;10.77;;;;;;;;;;10322237;28;20055;-65
2023/12/03 19:48:32;;;;;;;11.70;10.43;;;;;;;;;;10318820;28;20064;-67
2023/12/03 19:53:31;;;;;;;13.50;12.13;;;;;;;;;;10314109;28;20135;-68
2023/12/03 19:58:29;;;;;;;12.82;10.43;;;;;;;;;;10308435;28;20123;-67
2023/12/03 20:03:30;;;;;;;48.88;24.35;;;;;;;;;;10304418;28;20119;-68
2023/12/03 20:08:35;;;;;;;15.88;14.10;;;;;;;;;;10295812;28;20123;-67
2023/12/03 20:13:34;;;;;;;15.73;12.32;;;;;;;;;;10296429;28;20504;-67
2023/12/03 20:18:34;;;;;;;13.32;11.57;;;;;;;;;;10322183;28;20457;-67
2023/12/03 20:23:33;;;;;;;20.13;15.07;;;;;;;;;;10326704;28;20052;-67
2023/12/03 20:28:32;;;;;;;11.27;9.05;;;;;;;;;;10317483;28;20482;-66
2023/12/03 20:33:30;;;;;;;14.88;10.55;;;;;;;;;;10314116;28;21401;-66
2023/12/03 20:38:31;;;;;;;15.80;12.60;;;;;;;;;;10339577;28;20488;-67
2023/12/03 20:43:29;;;;;;;14.70;11.07;;;;;;;;;;10335765;28;20067;-67
2023/12/03 20:48:28;;;;;;;15.25;11.65;;;;;;;;;;10301898;28;20144;-67
2023/12/03 20:53:27;;;;;;;17.50;12.30;;;;;;;;;;10322363;28;21168;-66
2023/12/03 20:58:28;;;;;;;14.15;10.85;;;;;;;;;;10314622;28;20548;-67
2023/12/03 21:03:28;;;;;;;11.98;10.30;;;;;;;;;;10293455;28;20147;-66
2023/12/03 21:08:27;;;;;;;12.43;10.00;;;;;;;;;;10330376;28;20870;-67
2023/12/03 21:13:26;;;;;;;15.57;10.70;;;;;;;;;;10332602;28;20068;-66
2023/12/03 21:18:25;;;;;;;15.25;11.38;;;;;;;;;;10320829;28;20119;-66
2023/12/03 21:23:23;;;;;;;21.52;12.77;;;;;;;;;;10321213;28;20123;-67
2023/12/03 21:28:22;;;;;;;32.35;17.23;;;;;;;;;;10316210;28;20510;-67
2023/12/03 21:33:22;;;;;;;29.38;16.08;;;;;;;;;;10308110;28;20505;-66
2023/12/03 21:38:20;;;;;;;45.72;21.58;;;;;;;;;;10321199;28;20167;-67
2023/12/03 21:43:18;;;;;;;32.35;17.17;;;;;;;;;;10329510;28;20067;-66
2023/12/03 21:48:19;;;;;;;43.08;21.40;;;;;;;;;;10333158;28;20064;-67
2023/12/03 21:53:19;;;;;;;38.13;20.55;;;;;;;;;;10328589;28;20072;-66
2023/12/03 21:58:17;;;;;;;49.08;22.35;;;;;;;;;;10331586;28;20071;-66
2023/12/03 22:03:15;;;;;;;42.53;21.40;;;;;;;;;;10332792;28;20064;-66
2023/12/03 22:08:14;;;;;;;25.20;14.07;;;;;;;;;;10331391;28;20072;-67
2023/12/03 22:13:13;;;;;;;33.50;18.85;;;;;;;;;;10328699;28;20064;-67
2023/12/03 22:18:12;;;;;;;20.85;13.93;;;;;;;;;;10332624;28;20078;-65
2023/12/03 22:23:10;;;;;;;37.03;20.27;;;;;;;;;;10330070;28;20084;-65
2023/12/03 22:28:09;;;;;;;34.28;21.98;;;;;;;;;;10331002;28;20060;-66
2023/12/03 22:33:08;;;;;;;19.08;12.07;;;;;;;;;;10314502;28;20067;-65
2023/12/03 22:38:07;;;;;;;40.25;21.90;;;;;;;;;;10310876;28;20067;-66
2023/12/03 22:43:05;;;;;;;29.00;18.08;;;;;;;;;;10324881;28;20068;-66
2023/12/03 22:48:04;;;;;;;16.38;13.57;;;;;;;;;;10329858;28;20064;-67
2023/12/03 22:53:03;;;;;;;22.20;13.27;;;;;;;;;;10328696;28;20541;-66
2023/12/03 22:58:02;;;;;;;10.10;8.77;;;;;;;;;;10329613;28;20068;-66
2023/12/03 23:03:00;;;;;;;15.60;11.75;;;;;;;;;;10328876;28;20430;-66
2023/12/03 23:07:58;;;;;;;12.13;10.38;;;;;;;;;;10327814;28;20072;-66
2023/12/03 23:12:58;;;;;;;12.52;10.50;;;;;;;;;;10334980;28;20509;-67
2023/12/03 23:17:56;;;;;;;16.40;13.02;;;;;;;;;;10326300;28;20067;-66
2023/12/03 23:22:55;;;;;;;15.50;9.90;;;;;;;;;;10327656;28;20083;-66
2023/12/03 23:27:53;;;;;;;11.30;9.90;;;;;;;;;;10327132;28;20064;-66
2023/12/03 23:32:56;;;;;;;11.52;9.77;;;;;;;;;;10328721;28;20076;-67
2023/12/03 23:37:54;;;;;;;11.77;9.82;;;;;;;;;;10328597;28;20091;-66
2023/12/03 23:42:52;;;;;;;12.35;9.80;;;;;;;;;;10327083;28;20060;-66
2023/12/03 23:47:50;;;;;;;9.70;8.68;;;;;;;;;;10308680;28;20049;-65
2023/12/03 23:52:50;;;;;;;9.98;8.52;;;;;;;;;;10328542;28;20045;-66
2023/12/03 23:57:48;;;;;;;9.88;8.85;;;;;;;;;;10327496;28;20496;-66
